Time;durP1;ratioP1;P1;durP2;ratioP2;P2;SDS_P1;SDS_P2;PMS_P1;PMS_P2;Temp;Humidity;BMP_temperature;BMP_pressure;BME280_temperature;BME280_humidity;BME280_pressure;Samples;Min_cycle;Max_cycle;Signal;HPM_P1;HPM_P2
2023/08/31 00:07:16;;;;;;;5.80;3.10;;;24.10;34.00;;;;;;20926776;28;20048;-56
2023/08/31 00:17:20;;;;;;;9.48;3.28;;;23.80;34.90;;;;;;20924473;28;20041;-57
2023/08/31 00:27:21;;;;;;;7.88;2.72;;;23.50;35.40;;;;;;20923849;28;20049;-57
2023/08/31 00:37:22;;;;;;;5.97;3.13;;;23.30;35.60;;;;;;20922941;28;20112;-57
2023/08/31 00:47:23;;;;;;;7.80;3.00;;;23.10;35.90;;;;;;20923069;28;20053;-57
2023/08/31 00:57:26;;;;;;;6.13;2.88;;;23.00;36.10;;;;;;20920042;28;20041;-57
2023/08/31 01:07:26;;;;;;;5.72;2.75;;;22.70;36.30;;;;;;20922113;28;20053;-57
2023/08/31 01:17:30;;;;;;;3.63;2.00;;;22.70;36.30;;;;;;20921349;28;20397;-57
2023/08/31 01:27:32;;;;;;;3.30;2.17;;;22.70;36.20;;;;;;20920690;28;20041;-56
2023/08/31 01:37:57;;;;;;;5.00;3.28;;;22.70;36.20;;;;;;20918331;28;20410;-57
2023/08/31 01:47:57;;;;;;;6.00;2.60;;;22.80;36.10;;;;;;20919037;28;20049;-56
2023/08/31 01:57:58;;;;;;;4.32;3.03;;;22.70;36.50;;;;;;20917585;28;20049;-56
2023/08/31 02:07:59;;;;;;;8.32;3.53;;;22.70;36.40;;;;;;20917427;28;20435;-56
2023/08/31 02:18:00;;;;;;;4.40;2.20;;;22.60;36.80;;;;;;20915399;28;20521;-56
2023/08/31 02:28:01;;;;;;;4.70;2.08;;;22.40;37.20;;;;;;20914256;28;20101;-58
2023/08/31 02:38:02;;;;;;;3.85;2.28;;;22.10;37.50;;;;;;20915823;28;20055;-58
2023/08/31 02:48:03;;;;;;;5.80;2.22;;;21.70;37.90;;;;;;20914293;28;20049;-57
2023/08/31 02:58:04;;;;;;;6.82;2.58;;;21.50;38.30;;;;;;20913713;28;20510;-57
2023/08/31 03:08:05;;;;;;;6.53;2.70;;;21.30;38.60;;;;;;20913305;28;20060;-58
2023/08/31 03:18:06;;;;;;;3.25;2.25;;;21.10;39.00;;;;;;20911247;28;20045;-57
2023/08/31 03:28:07;;;;;;;3.78;2.17;;;20.80;39.70;;;;;;20911051;28;20526;-57
2023/08/31 03:38:08;;;;;;;4.63;2.40;;;20.70;40.00;;;;;;20910473;28;20056;-57
2023/08/31 03:48:08;;;;;;;3.67;1.85;;;20.70;40.10;;;;;;20911751;28;20076;-57
2023/08/31 03:58:09;;;;;;;3.78;2.05;;;20.60;39.90;;;;;;20911051;28;20041;-58
2023/08/31 04:08:10;;;;;;;3.38;1.90;;;20.30;40.80;;;;;;20908636;28;20053;-58
2023/08/31 04:18:11;;;;;;;3.67;1.80;;;20.00;41.40;;;;;;20911152;28;20372;-57
2023/08/31 04:28:12;;;;;;;4.68;2.28;;;20.00;42.10;;;;;;20925183;28;20048;-57
2023/08/31 04:38:12;;;;;;;2.92;1.92;;;19.80;42.30;;;;;;20923148;28;20060;-57
2023/08/31 04:48:15;;;;;;;4.32;2.22;;;19.80;42.20;;;;;;20922142;28;20045;-58
2023/08/31 04:58:16;;;;;;;3.60;2.70;;;19.70;42.30;;;;;;20921543;28;20041;-57
2023/08/31 05:08:17;;;;;;;4.72;2.42;;;19.60;42.20;;;;;;20920843;28;20056;-57
2023/08/31 05:18:17;;;;;;;7.45;2.03;;;19.60;42.30;;;;;;20920958;28;20504;-59
2023/08/31 05:28:18;;;;;;;11.00;7.47;;;19.50;42.80;;;;;;20920392;28;20045;-57
2023/08/31 05:38:19;;;;;;;5.53;1.90;;;19.60;42.80;;;;;;20916931;28;20049;-57
2023/08/31 05:48:20;;;;;;;8.18;4.78;;;19.60;43.00;;;;;;20916770;28;20053;-58
2023/08/31 05:58:20;;;;;;;4.70;2.30;;;19.60;43.40;;;;;;20916227;28;20045;-57
2023/08/31 06:08:21;;;;;;;6.10;2.33;;;19.70;43.10;;;;;;20916771;28;20041;-57
2023/08/31 06:18:22;;;;;;;7.20;2.58;;;19.70;43.50;;;;;;20915555;28;20048;-57
2023/08/31 06:28:23;;;;;;;6.60;2.65;;;19.70;43.60;;;;;;20914729;28;20045;-57
2023/08/31 06:38:23;;;;;;;6.95;2.70;;;19.90;43.50;;;;;;20912924;28;20085;-58
2023/08/31 06:48:25;;;;;;;9.38;2.42;;;20.10;43.50;;;;;;20913331;28;20084;-57
2023/08/31 06:58:25;;;;;;;7.90;2.97;;;20.30;43.30;;;;;;20913092;28;20479;-58
2023/08/31 07:08:26;;;;;;;7.22;2.83;;;20.80;42.90;;;;;;20911484;28;20067;-59
2023/08/31 07:18:27;;;;;;;9.43;2.90;;;21.20;41.90;;;;;;20912301;28;20095;-57
2023/08/31 07:28:27;;;;;;;10.90;2.63;;;21.50;41.70;;;;;;20911217;28;20094;-57
2023/08/31 07:38:30;;;;;;;9.43;3.20;;;21.70;41.60;;;;;;20910372;28;20132;-57
2023/08/31 07:48:31;;;;;;;4.60;2.00;;;22.20;41.90;;;;;;20911239;28;20059;-58
2023/08/31 07:58:31;;;;;;;7.53;2.35;;;22.70;42.30;;;;;;20920386;28;20398;-58
2023/08/31 08:08:32;;;;;;;5.57;2.38;;;23.00;42.50;;;;;;20926492;28;20080;-58
2023/08/31 08:18:33;;;;;;;5.70;2.25;;;23.30;42.90;;;;;;20957233;28;20052;-57
2023/08/31 08:28:34;;;;;;;6.13;2.17;;;23.50;43.20;;;;;;20925738;28;20048;-58
2023/08/31 08:38:34;;;;;;;4.75;1.95;;;23.70;45.00;;;;;;20923181;28;20131;-58
2023/08/31 08:48:36;;;;;;;5.32;2.05;;;23.90;46.00;;;;;;20923786;28;20067;-57
2023/08/31 08:58:37;;;;;;;6.07;2.60;;;24.20;44.90;;;;;;20922206;28;20045;-56
2023/08/31 09:08:41;;;;;;;6.72;2.38;;;24.50;45.60;;;;;;20920548;28;20288;-57
2023/08/31 09:18:42;;;;;;;7.60;2.60;;;24.60;44.70;;;;;;20921351;28;20162;-58
2023/08/31 09:28:43;;;;;;;12.10;3.65;;;24.90;44.00;;;;;;20918986;28;20041;-56
2023/08/31 09:38:45;;;;;;;10.63;2.77;;;25.00;43.70;;;;;;20921003;28;20045;-57
2023/08/31 09:48:47;;;;;;;9.63;2.37;;;25.20;44.70;;;;;;20919080;28;20644;-58
2023/08/31 09:58:48;;;;;;;10.60;2.75;;;25.30;44.20;;;;;;20918008;28;20498;-58
2023/08/31 10:08:49;;;;;;;7.87;3.87;;;25.40;43.80;;;;;;20917557;28;20502;-57
2023/08/31 10:18:50;;;;;;;9.52;2.13;;;25.40;43.40;;;;;;20916120;28;20444;-60
2023/08/31 10:28:51;;;;;;;8.30;2.07;;;25.40;42.50;;;;;;20916464;28;20056;-57
2023/08/31 10:38:58;;;;;;;5.67;2.33;;;25.60;41.40;;;;;;20915073;28;20053;-57
2023/08/31 10:49:09;;;;;;;7.10;2.58;;;25.70;40.90;;;;;;20914968;28;20486;-58
2023/08/31 10:59:10;;;;;;;3.80;2.10;;;25.90;39.00;;;;;;20912900;28;20041;-58
2023/08/31 11:09:21;;;;;;;6.13;2.70;;;26.20;36.00;;;;;;20912588;28;20041;-58
2023/08/31 11:19:22;;;;;;;3.95;2.30;;;26.50;35.80;;;;;;20912960;28;20555;-58
2023/08/31 11:29:23;;;;;;;4.87;2.10;;;26.80;35.70;;;;;;20915069;28;20132;-58
2023/08/31 11:39:24;;;;;;;6.80;2.20;;;27.10;34.30;;;;;;20929534;28;20091;-58
2023/08/31 11:49:27;;;;;;;8.47;3.07;;;27.30;33.20;;;;;;20927590;28;20132;-58
2023/08/31 11:59:28;;;;;;;5.95;2.45;;;27.50;33.00;;;;;;20927621;28;20045;-58
2023/08/31 12:09:29;;;;;;;4.07;2.20;;;27.50;32.50;;;;;;20926877;28;20048;-57
2023/08/31 12:19:31;;;;;;;6.50;3.40;;;27.90;31.20;;;;;;20924958;28;20044;-58
2023/08/31 12:29:31;;;;;;;8.85;3.60;;;28.30;30.60;;;;;;20925254;28;20049;-58
2023/08/31 12:39:32;;;;;;;4.77;3.37;;;28.30;30.60;;;;;;20924078;28;20052;-58
2023/08/31 12:49:33;;;;;;;4.10;1.60;;;28.60;30.60;;;;;;20923813;28;20045;-58
2023/08/31 12:59:34;;;;;;;4.43;2.00;;;28.70;29.90;;;;;;20922652;28;20041;-57
2023/08/31 13:09:34;;;;;;;3.53;1.90;;;29.00;29.40;;;;;;20922501;28;20290;-57
2023/08/31 13:19:35;;;;;;;;;;;29.30;28.50;;;;;;20920665;28;20456;-58
2023/08/31 13:29:36;;;;;;;7.40;2.50;;;29.30;28.60;;;;;;20919824;28;19921;-58
2023/08/31 13:39:37;;;;;;;4.53;2.50;;;29.50;28.50;;;;;;20919978;28;20145;-58
2023/08/31 13:49:37;;;;;;;3.40;1.95;;;29.70;27.70;;;;;;20919257;28;20045;-56
2023/08/31 13:59:38;;;;;;;8.75;7.35;;;29.60;27.70;;;;;;20917429;28;20103;-59
2023/08/31 14:09:39;;;;;;;5.72;2.17;;;29.90;26.90;;;;;;20917454;28;20102;-58
2023/08/31 14:19:40;;;;;;;7.82;4.30;;;30.00;26.80;;;;;;20916793;28;20066;-59
2023/08/31 14:29:40;;;;;;;5.97;2.22;;;30.10;26.60;;;;;;20915729;28;20053;-58
2023/08/31 14:39:41;;;;;;;16.58;3.60;;;30.30;25.50;;;;;;20915256;28;20059;-57
2023/08/31 14:49:42;;;;;;;4.88;2.20;;;30.20;25.30;;;;;;20913110;28;20041;-58
2023/08/31 14:59:43;;;;;;;3.17;1.75;;;30.40;24.90;;;;;;20913628;28;20045;-56
2023/08/31 15:09:44;;;;;;;3.08;1.80;;;30.60;24.30;;;;;;20912901;28;20037;-58
2023/08/31 15:19:45;;;;;;;6.88;2.53;;;30.40;24.40;;;;;;20912880;28;20048;-56
2023/08/31 15:29:45;;;;;;;4.60;2.95;;;30.40;24.30;;;;;;20911012;28;20060;-58
2023/08/31 15:39:46;;;;;;;3.33;2.10;;;30.40;23.90;;;;;;20910777;28;20132;-58
2023/08/31 15:49:47;;;;;;;4.88;2.10;;;30.40;23.90;;;;;;20911697;28;20057;-58
2023/08/31 15:59:48;;;;;;;3.75;2.17;;;30.50;23.40;;;;;;20911193;28;20044;-57
2023/08/31 16:09:52;;;;;;;2.80;2.03;;;30.60;23.40;;;;;;20911009;28;20052;-57
2023/08/31 16:19:53;;;;;;;3.17;1.83;;;30.60;23.60;;;;;;20919162;28;20091;-58
2023/08/31 16:29:54;;;;;;;4.43;2.97;;;30.60;23.50;;;;;;20925262;28;20131;-58
2023/08/31 16:39:54;;;;;;;5.80;2.50;;;30.60;24.00;;;;;;20923255;28;20101;-57
2023/08/31 16:49:58;;;;;;;19.45;3.55;;;30.60;24.00;;;;;;20922734;28;20051;-57
2023/08/31 16:59:59;;;;;;;12.65;7.43;;;30.60;23.60;;;;;;20922243;28;20501;-58
2023/08/31 17:10:01;;;;;;;5.78;3.60;;;30.70;23.80;;;;;;20921862;28;20041;-59
2023/08/31 17:20:05;;;;;;;5.97;3.38;;;30.60;23.60;;;;;;20921670;28;20564;-60
2023/08/31 17:30:07;;;;;;;3.42;2.30;;;30.50;23.80;;;;;;20920780;28;20490;-58
2023/08/31 17:40:08;;;;;;;4.03;2.20;;;30.40;23.30;;;;;;20919654;28;20068;-58
2023/08/31 17:50:10;;;;;;;6.50;2.85;;;30.30;23.60;;;;;;20918673;28;20048;-58
2023/08/31 18:00:11;;;;;;;7.40;3.17;;;30.20;23.90;;;;;;20918420;28;20409;-57
2023/08/31 18:10:11;;;;;;;6.18;2.70;;;30.10;24.10;;;;;;20917407;28;20053;-58
2023/08/31 18:20:12;;;;;;;3.30;2.30;;;29.90;23.80;;;;;;20916307;28;20079;-58
2023/08/31 18:30:13;;;;;;;5.20;3.40;;;29.70;23.30;;;;;;20914876;28;20056;-58
2023/08/31 18:40:15;;;;;;;7.38;3.60;;;29.60;23.90;;;;;;20915117;28;20043;-57
2023/08/31 18:50:20;;;;;;;5.70;2.75;;;29.40;23.80;;;;;;20914181;28;20107;-57
2023/08/31 19:00:22;;;;;;;4.53;3.40;;;29.20;23.90;;;;;;20913582;28;20071;-57
2023/08/31 19:10:23;;;;;;;7.68;3.88;;;29.10;24.20;;;;;;20913568;28;20391;-57
2023/08/31 19:20:24;;;;;;;8.80;4.95;;;28.90;24.80;;;;;;20912786;28;20053;-58
2023/08/31 19:30:24;;;;;;;12.60;6.65;;;28.80;25.30;;;;;;20911191;28;20045;-58
2023/08/31 19:40:25;;;;;;;;;;;28.50;25.60;;;;;;20912237;28;20548;-59
2023/08/31 19:50:27;;;;;;;12.40;7.00;;;28.30;25.90;;;;;;20913198;28;19970;-59
2023/08/31 20:00:28;;;;;;;13.90;8.45;;;28.20;26.50;;;;;;20926864;28;20095;-58
2023/08/31 20:10:29;;;;;;;12.88;7.43;;;28.10;27.00;;;;;;20925891;28;20045;-57
2023/08/31 20:20:30;;;;;;;17.03;9.83;;;27.90;27.20;;;;;;20926628;28;20048;-57
2023/08/31 20:30:31;;;;;;;14.40;7.97;;;27.80;27.50;;;;;;20925250;28;20136;-57
2023/08/31 20:40:38;;;;;;;11.25;7.90;;;27.20;28.20;;;;;;20924819;28;20393;-61
2023/08/31 20:50:39;;;;;;;15.55;6.95;;;27.40;28.00;;;;;;20924210;28;20078;-58
2023/08/31 21:00:40;;;;;;;14.70;7.10;;;27.20;28.20;;;;;;20921347;28;20045;-58
2023/08/31 21:10:41;;;;;;;13.07;7.60;;;27.20;28.50;;;;;;20921110;28;20049;-59
2023/08/31 21:20:43;;;;;;;19.93;9.93;;;27.20;29.00;;;;;;20920850;28;20127;-58
2023/08/31 21:30:44;;;;;;;19.75;10.25;;;27.00;29.30;;;;;;20919961;28;20060;-58
2023/08/31 21:40:48;;;;;;;16.47;9.23;;;26.80;29.50;;;;;;20919196;28;20041;-58
2023/08/31 21:50:49;;;;;;;18.52;7.53;;;26.70;29.90;;;;;;20918318;28;20051;-57
2023/08/31 22:00:51;;;;;;;9.60;4.73;;;26.40;30.30;;;;;;20917062;28;20123;-58
2023/08/31 22:10:52;;;;;;;11.68;5.80;;;26.30;29.50;;;;;;20917821;28;20077;-59
2023/08/31 22:20:53;;;;;;;11.47;6.20;;;26.30;29.70;;;;;;20915471;28;20044;-58
2023/08/31 22:30:53;;;;;;;9.37;6.10;;;26.10;29.70;;;;;;20916170;28;20057;-57
2023/08/31 22:40:54;;;;;;;8.30;5.37;;;26.10;29.50;;;;;;20915486;28;20049;-58
2023/08/31 22:51:03;;;;;;;14.63;6.63;;;26.10;30.30;;;;;;20914809;28;20398;-58
2023/08/31 23:01:04;;;;;;;13.55;7.57;;;26.10;30.30;;;;;;20912602;28;20084;-58
2023/08/31 23:11:05;;;;;;;11.33;7.07;;;25.90;30.90;;;;;;20913212;28;20060;-57
2023/08/31 23:21:08;;;;;;;11.00;7.00;;;25.90;31.10;;;;;;20912966;28;20064;-57
2023/08/31 23:31:08;;;;;;;16.85;6.97;;;25.90;31.30;;;;;;20911351;28;20059;-58
2023/08/31 23:41:09;;;;;;;12.47;7.23;;;25.70;31.70;;;;;;20912422;28;20479;-59
2023/08/31 23:51:10;;;;;;;17.40;7.40;;;25.50;32.50;;;;;;20912062;28;20104;-59
